Data for 07/05/2007

Time Sea-Level Adjusted Pressure Absolute Pressure Temperature Relative Humidity Dew Point   
(mb) (inHg) (mb) (inHg) (C) (F) (%) (C) (F)
00:05 1025 30.27 854 25.22 23.4 74.1 34 7 44.5
00:10 1025 30.27 854 25.22 23.3 73.9 34 6.7 44.1
00:15 1025 30.27 854 25.22 23.2 73.7 34 6.6 43.9
00:20 1025 30.27 854 25.22 23.1 73.7 34 6.7 44
00:25 1025 30.27 854 25.22 23.1 73.5 34 6.5 43.8
00:30 1025 30.27 854 25.22 23 73.4 34 6.6 43.9
00:35 1025 30.27 854 25.22 22.9 73.3 34 6.5 43.7
00:40 1025 30.27 854 25.22 22.9 73.2 34 6.5 43.6
00:45 1025 30.27 854 25.22 22.8 73.1 34 6.5 43.8
00:50 1025 30.27 854 25.22 22.6 72.8 34 6.3 43.4
00:55 1025 30.27 854 25.22 22.6 72.7 34 6.4 43.5
01:00 1025 30.27 854 25.22 22.6 72.7 35 6.4 43.6
01:05 1025 30.27 854 25.22 22.5 72.4 34 6.2 43.2
01:10 1025 30.27 854 25.22 22.5 72.4 35 6.3 43.3
01:15 1025 30.27 854 25.22 22.4 72.3 35 6.2 43.2
01:20 1025 30.27 854 25.22 22.3 72.2 35 6.2 43.2
01:25 1025 30.27 854 25.22 22.3 72.1 35 6.4 43.5
01:30 1025 30.27 854 25.22 22 71.6 36 6.3 43.3
01:35 1025 30.27 854 25.22 21.9 71.4 36 6.5 43.7
01:40 1025 30.27 854 25.22 21.7 71.1 37 6.6 43.9
01:45 1025 30.27 854 25.22 21.6 71 37 6.6 43.9
01:50 1025 30.27 854 25.22 21.6 70.8 37 6.5 43.6
01:55 1025 30.27 854 25.22 21.5 70.8 37 6.5 43.6
02:00 1025 30.27 854 25.22 21.5 70.7 38 6.6 43.9
02:05 1025 30.27 854 25.22 21.4 70.6 37 6.3 43.4
02:10 1025 30.27 854 25.22 21.4 70.6 37 6.3 43.4
02:15 1025 30.27 854 25.22 21.4 70.5 37 6.4 43.5
02:20 1025 30.27 854 25.22 21.3 70.3 37 6.1 43
02:25 1025 30.27 854 25.22 21.3 70.3 37 6.1 43
02:30 1025 30.27 854 25.22 21.3 70.3 37 6.1 42.9
02:35 1025 30.27 854 25.22 21.3 70.3 37 6.1 43
02:40 1025 30.27 854 25.22 21.3 70.3 37 6.2 43.1
02:45 1025 30.27 854 25.22 21.2 70.1 37 6.2 43.1
02:50 1025 30.27 854 25.22 21.1 69.9 37 6.1 43.1
02:55 1025 30.27 854 25.22 21.1 69.9 37 6.1 43
03:00 1025 30.27 854 25.22 21.1 69.9 37 5.9 42.6
03:05 1025 30.27 854 25.22 21.1 70 37 6 42.7
03:10 1025 30.27 854 25.22 21 69.8 37 6 42.9
03:15 1025 30.27 854 25.22 20.9 69.7 37 5.9 42.7
03:20 1025 30.27 854 25.22 20.9 69.6 37 6 42.8
03:25 1025 30.27 854 25.22 20.9 69.6 38 6 42.8
03:30 1025 30.27 854 25.22 20.8 69.5 37 5.9 42.6
03:35 1025 30.27 854 25.22 20.9 69.6 37 5.9 42.6
03:40 1025 30.27 854 25.22 20.9 69.6 37 5.9 42.6
03:45 1025 30.27 854 25.22 20.8 69.5 37 5.9 42.7
03:50 1025 30.27 854 25.22 20.8 69.4 37 5.9 42.5
03:55 1025 30.27 854 25.22 20.8 69.4 37 5.8 42.5
04:00 1025 30.27 854 25.22 20.7 69.3 37 5.9 42.6
04:05 1025 30.27 854 25.22 20.8 69.5 37 5.9 42.6
04:10 1025 30.27 854 25.22 20.7 69.3 37 5.8 42.4
04:15 1025 30.27 854 25.22 20.7 69.3 37 5.9 42.5
04:20 1025 30.27 854 25.22 20.6 69.2 37 5.8 42.4
04:25 1025 30.27 854 25.22 20.6 69.1 38 5.9 42.6
04:30 1025 30.27 854 25.22 20.5 68.9 38 5.9 42.7
04:35 1025 30.27 854 25.22 20.4 68.7 38 5.8 42.5
04:40 1025 30.27 854 25.22 20.3 68.6 38 5.9 42.6
04:45 1025 30.27 854 25.22 20.2 68.4 39 6 42.8
04:50 1025 30.27 854 25.22 20.2 68.3 39 5.9 42.6
04:55 1025 30.27 854 25.22 20.1 68.1 40 6.2 43.1
05:00 1025 30.27 854 25.22 19.8 67.7 40 6.1 43
05:05 1025 30.27 854 25.22 19.8 67.7 40 5.8 42.5
05:10 1025 30.27 854 25.22 20 67.9 40 6 42.9
05:15 1025 30.27 855 25.25 19.9 67.8 39 5.8 42.4
05:20 1025 30.27 855 25.25 20 67.9 39 5.9 42.6
05:25 1025 30.27 855 25.25 19.9 67.8 39 5.8 42.5
05:30 1025 30.27 855 25.25 20 67.9 39 5.7 42.2
05:35 1025 30.27 855 25.25 20 68 40 6 42.8
05:40 1026 30.3 855 25.25 19.7 67.4 40 6 42.8
05:45 1026 30.3 855 25.25 19.6 67.2 41 6 42.9
05:50 1025 30.27 855 25.25 19.6 67.2 40 5.8 42.5
05:55 1025 30.27 855 25.25 19.8 67.6 39 5.7 42.2
06:00 1025 30.27 855 25.25 19.9 67.8 40 5.9 42.6
06:05 1025 30.27 855 25.25 19.8 67.6 40 6 42.8
06:10 1025 30.27 855 25.25 19.6 67.3 41 6 42.8
06:15 1026 30.3 855 25.25 19.5 67.1 41 6.2 43.1
06:20 1026 30.3 855 25.25 19.4 67 42 6.4 43.4
06:25 1026 30.3 855 25.25 19.5 67 41 6.1 43
06:30 1026 30.3 855 25.25 19.6 67.3 41 6.2 43.2
06:35 1026 30.3 855 25.25 19.7 67.4 41 6.3 43.4
06:40 1026 30.3 855 25.25 19.6 67.3 42 6.5 43.7
06:45 1026 30.3 855 25.25 19.6 67.2 42 6.6 43.9
06:50 1026 30.3 855 25.25 19.4 66.9 43 6.5 43.7
06:55 1026 30.3 855 25.25 19.4 66.8 43 6.7 44.1
07:00 1026 30.3 855 25.25 19.3 66.8 44 6.9 44.4
07:05 1026 30.3 855 25.25 19.5 67 42 6.5 43.6
07:10 1026 30.3 855 25.25 19.8 67.6 43 6.9 44.4
07:15 1026 30.3 855 25.25 19.9 67.8 43 7 44.5
07:20 1026 30.3 855 25.25 20 68 42 6.7 44
07:25 1026 30.3 855 25.25 20.3 68.5 42 7.2 45
07:30 1026 30.3 855 25.25 20.5 68.9 42 7.4 45.3
07:35 1026 30.3 855 25.25 20.6 69 43 7.6 45.6
07:40 1026 30.3 855 25.25 20.9 69.5 40 7.1 44.8
07:45 1026 30.3 855 25.25 21.1 70 40 7.1 44.8
07:50 1026 30.3 855 25.25 21.4 70.6 39 7.2 45
07:55 1026 30.3 855 25.25 21.7 71 40 7.5 45.5
08:00 1026 30.3 855 25.25 21.8 71.2 39 7.3 45.2
08:05 1026 30.3 855 25.25 21.9 71.4 38 7.3 45.1
08:10 1026 30.3 855 25.25 22 71.6 39 7.6 45.7
08:15 1026 30.3 855 25.25 22.2 72 38 7.6 45.6
08:20 1026 30.3 855 25.25 22.3 72.2 39 7.7 45.9
08:25 1026 30.3 855 25.25 22.6 72.6 39 7.9 46.3
08:30 1026 30.3 855 25.25 22.8 73.1 38 7.8 46
08:35 1026 30.3 855 25.25 23.2 73.7 38 8.2 46.7
08:40 1026 30.3 855 25.25 23.3 74 37 8.1 46.6
08:45 1026 30.3 855 25.25 23.2 73.8 41 9.4 49
08:50 1026 30.3 855 25.25 23.6 74.4 39 8.9 48
08:55 1026 30.3 855 25.25 24.1 75.3 39 9.4 48.9
09:00 1026 30.3 855 25.25 23.9 75.1 39 9.3 48.7
09:05 1026 30.3 855 25.25 23.9 75.1 38 8.9 48
09:10 1026 30.3 855 25.25 24 75.2 39 9.4 48.9
09:15 1026 30.3 855 25.25 24.1 75.3 34 7.5 45.6
09:20 1026 30.3 855 25.25 24.5 76 33 7.5 45.5
09:25 1026 30.3 855 25.25 24.7 76.5 33 7.7 45.8
09:30 1026 30.3 855 25.25 25 77 34 8.2 46.8
09:35 1026 30.3 855 25.25 25 77 33 7.8 46.1
09:40 1026 30.3 855 25.25 25 76.9 34 8.1 46.5
09:45 1026 30.3 855 25.25 25.2 77.3 33 8 46.4
09:50 1026 30.3 855 25.25 25.1 77.3 32 7.6 45.6
09:55 1026 30.3 855 25.25 25.2 77.4 33 8.2 46.7
10:00 1026 30.3 855 25.25 25.7 78.2 32 8.1 46.5
10:05 1026 30.3 855 25.25 25.3 77.5 35 9.1 48.4
10:10 1026 30.3 855 25.25 25 76.9 35 8.6 47.6
10:15 1025 30.27 855 25.25 25.3 77.6 34 8.6 47.5
10:20 1025 30.27 855 25.25 25 76.9 35 8.8 47.9
10:25 1025 30.27 855 25.25 25.2 77.4 34 8.3 46.9
10:30 1025 30.27 855 25.25 26 78.8 33 8.8 47.8
10:35 1025 30.27 855 25.25 26.7 80.1 33 9.2 48.5
10:40 1025 30.27 855 25.25 26.5 79.8 34 9.6 49.3
10:45 1025 30.27 854 25.22 25.6 78.1 36 9.5 49.2
10:50 1025 30.27 854 25.22 26.3 79.3 32 8.4 47.1
10:55 1025 30.27 854 25.22 26.4 79.5 32 8.6 47.4
11:00 1025 30.27 854 25.22 27.1 80.7 32 9.2 48.6
11:05 1025 30.27 854 25.22 27.8 82.1 31 9.4 49
11:10 1025 30.27 854 25.22 27.8 82 30 8.7 47.7
11:15 1025 30.27 854 25.22 27.3 81.1 32 9.2 48.6
11:20 1025 30.27 854 25.22 27.2 81 31 9 48.3
11:25 1025 30.27 854 25.22 26.8 80.3 33 9.3 48.8
11:30 1025 30.27 854 25.22 26.7 80.1 33 9.5 49.1
11:35 1025 30.27 854 25.22 27 80.6 32 9.2 48.5
11:40 1025 30.27 854 25.22 27.8 82.1 30 9.2 48.5
11:45 1025 30.27 854 25.22 28.7 83.7 30 9.5 49.1
11:50 1025 30.27 854 25.22 27.8 82 32 9.7 49.5
11:55 1025 30.27 854 25.22 27.9 82.3 31 9.4 48.9
12:00 1025 30.27 854 25.22 27.9 82.2 30 9.1 48.3
12:05 1025 30.27 854 25.22 28.8 83.8 29 9.4 48.9
12:10 1025 30.27 854 25.22 28.6 83.5 31 10 50
12:15 1025 30.27 854 25.22 28.6 83.4 31 9.9 49.9
12:20 1025 30.27 854 25.22 29 84.2 29 9.3 48.8
12:25 1025 30.27 854 25.22 29.3 84.8 29 10 50
12:30 1024 30.24 854 25.22 29.1 84.3 29 9.5 49.2
12:35 1024 30.24 854 25.22 29.3 84.7 29 9.8 49.6
12:40 1024 30.24 854 25.22 29.8 85.6 28 9.6 49.4
12:45 1024 30.24 854 25.22 30.3 86.5 28 9.9 49.8
12:50 1024 30.24 854 25.22 30.3 86.5 28 9.9 49.8
12:55 1024 30.24 853 25.19 30.7 87.2 26 9.4 49
13:00 1024 30.24 853 25.19 30.8 87.5 25 8.9 48
13:05 1024 30.24 853 25.19 30.4 86.6 24 8.1 46.6
13:10 1024 30.24 853 25.19 30.6 87.1 24 8.3 46.9
13:15 1024 30.24 853 25.19 30.6 87.1 27 9.8 49.7
13:20 1024 30.24 853 25.19 30.6 87.1 25 8.8 47.8
13:25 1024 30.24 853 25.19 30.7 87.3 25 8.6 47.5
13:30 1024 30.24 853 25.19 30.9 87.5 24 8.2 46.7
13:35 1024 30.24 853 25.19 31.2 88.1 24 8.6 47.5
13:40 1024 30.24 853 25.19 31.2 88.1 25 9 48.2
13:45 1024 30.24 853 25.19 31.3 88.4 23 8.4 47.1
13:50 1024 30.24 853 25.19 31.3 88.3 24 8.6 47.6
13:55 1024 30.24 853 25.19 31.3 88.4 23 7.9 46.2
14:00 1024 30.24 853 25.19 31.2 88.2 24 8.5 47.4
14:05 1023 30.21 853 25.19 31.8 89.2 22 7.9 46.2
14:10 1023 30.21 853 25.19 31.5 88.6 23 8.1 46.6
14:15 1023 30.21 853 25.19 31.6 89 22 7.7 45.9
14:20 1023 30.21 853 25.19 32.1 89.7 23 8.8 47.8
14:25 1023 30.21 853 25.19 32.4 90.2 21 7.5 45.6
14:30 1023 30.21 852 25.16 32.1 89.7 22 7.8 46
14:35 1023 30.21 852 25.16 31.9 89.5 22 8.2 46.7
14:40 1023 30.21 852 25.16 31.7 89 23 8.5 47.3
14:45 1023 30.21 852 25.16 31.7 89 23 8.4 47.1
14:50 1023 30.21 852 25.16 31.9 89.4 23 8.2 46.8
14:55 1023 30.21 852 25.16 32.2 89.9 23 8.6 47.5
15:00 1023 30.21 852 25.16 32.2 89.9 24 9.1 48.5
15:05 1023 30.21 852 25.16 32 89.7 23 8.7 47.7
15:10 1023 30.21 852 25.16 32.1 89.8 22 8.2 46.7
15:15 1023 30.21 852 25.16 32.2 90 21 7.6 45.8
15:20 1023 30.21 852 25.16 32.1 89.7 22 8.2 46.7
15:25 1023 30.21 852 25.16 32.6 90.6 22 8.7 47.6
15:30 1023 30.21 852 25.16 33 91.3 21 8.2 46.8
15:35 1023 30.21 852 25.16 32.7 90.9 21 7.8 46.1
15:40 1023 30.21 852 25.16 32.8 91 21 7.8 46.1
15:45 1023 30.21 852 25.16 33.3 92 20 7.6 45.7
15:50 1023 30.21 852 25.16 33.2 91.8 18 6 42.9
15:55 1023 30.21 852 25.16 33.2 91.7 16 4.2 39.6
16:00 1022 30.18 852 25.16 33.9 93.1 15 4.4 39.9
16:05 1022 30.18 852 25.16 34.3 93.8 16 5 41
16:10 1022 30.18 852 25.16 33.3 92 18 6 42.8
16:15 1022 30.18 852 25.16 33.2 91.8 17 5.5 41.9
16:20 1022 30.18 851 25.13 34 93.2 19 7.3 45.1
16:25 1022 30.18 851 25.13 34.6 94.3 16 5.8 42.5
16:30 1022 30.18 851 25.13 34.8 94.7 15 5.2 41.4
16:35 1022 30.18 851 25.13 34.3 93.8 16 5 40.9
16:40 1022 30.18 851 25.13 34.6 94.4 15 4.8 40.7
16:45 1022 30.18 851 25.13 34.7 94.4 15 4.5 40.1
16:50 1022 30.18 851 25.13 34.3 93.8 15 4.9 40.8
16:55 1022 30.18 851 25.13 33.7 92.6 15 3.8 38.8
17:00 1022 30.18 851 25.13 34.4 94 15 4.5 40.1
17:05 1022 30.18 851 25.13 34 93.2 15 4.6 40.3
17:10 1022 30.18 851 25.13 33.5 92.2 15 4.1 39.3
17:15 1022 30.18 851 25.13 33.7 92.7 16 4.7 40.4
17:20 1022 30.18 851 25.13 33.8 92.9 15 4.4 40
17:25 1022 30.18 851 25.13 33.8 92.9 15 4.4 40
17:30 1022 30.18 851 25.13 33.7 92.6 15 4.1 39.3
17:35 1022 30.18 851 25.13 33.5 92.4 15 3.6 38.6
17:40 1021 30.15 851 25.13 33.6 92.5 14 2.9 37.3
17:45 1021 30.15 851 25.13 33.1 91.6 15 3.4 38.2
17:50 1021 30.15 851 25.13 33.2 91.7 15 3.1 37.6
17:55 1021 30.15 851 25.13 33.6 92.4 15 3.5 38.2
18:00 1021 30.15 851 25.13 34.4 93.9 14 3.4 38.1
18:05 1021 30.15 850 25.1 34.2 93.6 14 3.6 38.5
18:10 1021 30.15 850 25.1 34.2 93.5 14 3.5 38.3
18:15 1021 30.15 850 25.1 33.8 92.9 15 3.7 38.7
18:20 1021 30.15 850 25.1 33.4 92.1 15 3.7 38.6
18:25 1021 30.15 850 25.1 33.5 92.2 14 3.1 37.5
18:30 1021 30.15 850 25.1 33.4 92.1 20 7.6 45.6
18:35 1021 30.15 850 25.1 33.2 91.8 21 8.5 47.4
18:40 1021 30.15 850 25.1 33.1 91.6 21 8.1 46.6
18:45 1021 30.15 850 25.1 32.6 90.7 22 8.4 47.2
18:50 1021 30.15 850 25.1 32.2 90 22 8.2 46.7
18:55 1021 30.15 850 25.1 32.1 89.7 22 8.2 46.7
19:00 1021 30.15 850 25.1 31.8 89.3 22 7.9 46.3
19:05 1021 30.15 850 25.1 31.7 89.1 22 7.5 45.6
19:10 1021 30.15 850 25.1 31.6 88.9 22 7.7 45.9
19:15 1021 30.15 850 25.1 31.5 88.7 23 8 46.5
19:20 1021 30.15 850 25.1 31.4 88.5 23 8.1 46.5
19:25 1021 30.15 850 25.1 31.3 88.3 23 7.8 46
19:30 1021 30.15 850 25.1 31.1 87.9 22 7.5 45.6
19:35 1021 30.15 850 25.1 30.7 87.2 23 7.6 45.8
19:40 1021 30.15 850 25.1 30.6 87 22 6.7 44.1
19:45 1021 30.15 850 25.1 30.5 86.8 23 7.1 44.9
19:50 1021 30.15 850 25.1 30.4 86.6 23 7.2 45
19:55 1021 30.15 850 25.1 30.1 86.3 24 7.6 45.6
20:00 1021 30.15 850 25.1 29.9 85.8 24 7.6 45.7
20:05 1021 30.15 850 25.1 29.7 85.4 25 7.6 45.8
20:10 1021 30.15 850 25.1 29.5 85 25 7.8 46.1
20:15 1021 30.15 850 25.1 29.3 84.7 25 7.6 45.7
20:20 1021 30.15 850 25.1 29.2 84.5 25 7.6 45.6
20:25 1021 30.15 850 25.1 29.2 84.5 26 7.8 46
20:30 1021 30.15 850 25.1 29.3 84.7 25 7.7 45.9
20:35 1021 30.15 850 25.1 29.3 84.7 26 8 46.5
20:40 1021 30.15 850 25.1 29 84.3 27 8.5 47.2
20:45 1021 30.15 850 25.1 28.8 83.8 28 8.6 47.5
20:50 1021 30.15 850 25.1 28.5 83.3 29 8.8 47.9
20:55 1021 30.15 850 25.1 28.2 82.8 29 9 48.2
21:00 1021 30.15 850 25.1 27.9 82.1 30 9.1 48.5
21:05 1021 30.15 850 25.1 27.6 81.8 30 8.8 47.8
21:10 1021 30.15 850 25.1 27.7 81.9 30 8.6 47.5
21:15 1021 30.15 850 25.1 27.9 82.2 29 8.6 47.5
21:20 1021 30.15 850 25.1 27.8 82.1 30 8.9 47.9
21:25 1021 30.15 850 25.1 27.6 81.7 30 8.8 47.8
21:30 1021 30.15 850 25.1 27.5 81.5 30 8.7 47.7
21:35 1021 30.15 850 25.1 27.4 81.4 31 8.9 48
21:40 1021 30.15 850 25.1 27.3 81.2 31 8.9 48
21:45 1021 30.15 851 25.13 27.3 81.1 31 8.8 47.8
21:50 1021 30.15 851 25.13 27.3 81.1 31 8.7 47.7
21:55 1021 30.15 851 25.13 27.3 81.1 30 8.6 47.5
22:00 1021 30.15 851 25.13 27.2 80.9 31 8.7 47.6
22:05 1021 30.15 851 25.13 27 80.7 31 8.7 47.7
22:10 1021 30.15 851 25.13 27 80.5 31 8.7 47.7
22:15 1021 30.15 851 25.13 26.8 80.3 31 8.6 47.5
22:20 1021 30.15 851 25.13 26.9 80.5 31 8.6 47.4
22:25 1021 30.15 851 25.13 26.9 80.3 31 8.5 47.4
22:30 1021 30.15 851 25.13 26.7 80 31 8.6 47.4
22:35 1021 30.15 851 25.13 26.6 80 31 8.4 47.1
22:40 1021 30.15 851 25.13 26.6 79.9 31 8.4 47.2
22:45 1021 30.15 851 25.13 26.6 79.8 31 8.4 47.2
22:50 1021 30.15 851 25.13 26.4 79.5 32 8.4 47.2
22:55 1021 30.15 851 25.13 26.3 79.4 32 8.4 47.1
23:00 1021 30.15 851 25.13 26.2 79.2 32 8.5 47.3
23:05 1021 30.15 851 25.13 26.1 79 32 8.5 47.3
23:10 1021 30.15 851 25.13 26 78.8 33 8.5 47.4
23:15 1021 30.15 851 25.13 25.9 78.6 33 8.5 47.2
23:20 1021 30.15 851 25.13 25.9 78.6 33 8.6 47.4
23:25 1021 30.15 851 25.13 25.9 78.5 33 8.6 47.4
23:30 1021 30.15 851 25.13 25.9 78.5 33 8.5 47.3
23:35 1021 30.15 850 25.1 25.7 78.3 33 8.6 47.4
23:40 1021 30.15 851 25.13 25.6 78.1 33 8.5 47.3
23:45 1021 30.15 851 25.13 25.6 78.1 34 8.6 47.5
23:50 1021 30.15 851 25.13 25.5 77.8 34 8.5 47.3
23:55 1021 30.15 851 25.13 25.4 77.8 34 8.5 47.4
24:00 1021 30.15 851 25.13 25.4 77.8 34 8.5 47.3